sensor_id;sensor_type;location;lat;lon;timestamp;temperature;humidity
7461;DHT22;6757;52.258;12.840;2024-02-15T00:00:18;9.00;99.90
7461;DHT22;6757;52.258;12.840;2024-02-15T00:02:49;9.00;99.90
7461;DHT22;6757;52.258;12.840;2024-02-15T00:05:16;9.00;99.90
7461;DHT22;6757;52.258;12.840;2024-02-15T00:07:43;9.00;99.90
7461;DHT22;6757;52.258;12.840;2024-02-15T00:10:13;9.00;99.90
7461;DHT22;6757;52.258;12.840;2024-02-15T00:12:42;9.00;99.90
7461;DHT22;6757;52.258;12.840;2024-02-15T00:15:10;9.00;99.90
7461;DHT22;6757;52.258;12.840;2024-02-15T00:17:37;9.00;99.90
7461;DHT22;6757;52.258;12.840;2024-02-15T00:20:09;9.00;99.90
7461;DHT22;6757;52.258;12.840;2024-02-15T00:22:36;9.00;99.90
7461;DHT22;6757;52.258;12.840;2024-02-15T00:25:04;9.00;99.90
7461;DHT22;6757;52.258;12.840;2024-02-15T00:27:34;9.00;99.90
7461;DHT22;6757;52.258;12.840;2024-02-15T00:30:01;9.00;99.90
7461;DHT22;6757;52.258;12.840;2024-02-15T00:32:30;8.90;99.90
7461;DHT22;6757;52.258;12.840;2024-02-15T00:34:57;9.00;99.90
7461;DHT22;6757;52.258;12.840;2024-02-15T00:37:26;8.90;99.90
7461;DHT22;6757;52.258;12.840;2024-02-15T00:39:54;9.00;99.90
7461;DHT22;6757;52.258;12.840;2024-02-15T00:42:21;8.90;99.90
7461;DHT22;6757;52.258;12.840;2024-02-15T00:44:49;8.90;99.90
7461;DHT22;6757;52.258;12.840;2024-02-15T00:47:16;8.90;99.90
7461;DHT22;6757;52.258;12.840;2024-02-15T00:49:46;8.90;99.90
7461;DHT22;6757;52.258;12.840;2024-02-15T00:52:16;8.80;99.90
7461;DHT22;6757;52.258;12.840;2024-02-15T00:54:47;8.90;99.90
7461;DHT22;6757;52.258;12.840;2024-02-15T00:57:14;8.90;99.90
7461;DHT22;6757;52.258;12.840;2024-02-15T00:59:43;8.90;99.90
7461;DHT22;6757;52.258;12.840;2024-02-15T01:02:11;8.90;99.90
7461;DHT22;6757;52.258;12.840;2024-02-15T01:04:39;8.90;99.90
7461;DHT22;6757;52.258;12.840;2024-02-15T01:07:08;8.80;99.90
7461;DHT22;6757;52.258;12.840;2024-02-15T01:09:34;8.90;99.90
7461;DHT22;6757;52.258;12.840;2024-02-15T01:12:04;8.90;99.90
7461;DHT22;6757;52.258;12.840;2024-02-15T01:14:32;8.90;99.90
7461;DHT22;6757;52.258;12.840;2024-02-15T01:16:59;8.90;99.90
7461;DHT22;6757;52.258;12.840;2024-02-15T01:19:27;8.90;99.90
7461;DHT22;6757;52.258;12.840;2024-02-15T01:21:57;9.00;99.90
7461;DHT22;6757;52.258;12.840;2024-02-15T01:24:24;9.00;99.90
7461;DHT22;6757;52.258;12.840;2024-02-15T01:26:52;9.00;99.90
7461;DHT22;6757;52.258;12.840;2024-02-15T01:29:21;9.00;99.90
7461;DHT22;6757;52.258;12.840;2024-02-15T01:31:48;9.00;99.90
7461;DHT22;6757;52.258;12.840;2024-02-15T01:34:15;8.90;99.90
7461;DHT22;6757;52.258;12.840;2024-02-15T01:36:43;9.00;99.90
7461;DHT22;6757;52.258;12.840;2024-02-15T01:39:12;9.00;99.90
7461;DHT22;6757;52.258;12.840;2024-02-15T01:41:39;9.00;99.90
7461;DHT22;6757;52.258;12.840;2024-02-15T01:44:15;9.00;99.90
7461;DHT22;6757;52.258;12.840;2024-02-15T01:46:44;9.00;99.90
7461;DHT22;6757;52.258;12.840;2024-02-15T01:49:13;9.00;99.90
7461;DHT22;6757;52.258;12.840;2024-02-15T01:51:42;8.80;99.90
7461;DHT22;6757;52.258;12.840;2024-02-15T01:54:10;9.00;99.90
7461;DHT22;6757;52.258;12.840;2024-02-15T01:56:37;9.00;99.90
7461;DHT22;6757;52.258;12.840;2024-02-15T01:59:08;9.00;99.90
7461;DHT22;6757;52.258;12.840;2024-02-15T02:01:39;9.00;99.90
7461;DHT22;6757;52.258;12.840;2024-02-15T02:04:09;9.00;99.90
7461;DHT22;6757;52.258;12.840;2024-02-15T02:06:37;9.00;99.90
7461;DHT22;6757;52.258;12.840;2024-02-15T02:09:06;9.00;99.90
7461;DHT22;6757;52.258;12.840;2024-02-15T02:11:38;8.80;99.90
7461;DHT22;6757;52.258;12.840;2024-02-15T02:14:05;9.00;99.90
7461;DHT22;6757;52.258;12.840;2024-02-15T02:16:31;9.10;99.90
7461;DHT22;6757;52.258;12.840;2024-02-15T02:19:01;9.10;99.90
7461;DHT22;6757;52.258;12.840;2024-02-15T02:21:35;9.10;99.90
7461;DHT22;6757;52.258;12.840;2024-02-15T02:24:04;9.10;99.90
7461;DHT22;6757;52.258;12.840;2024-02-15T02:26:38;9.10;99.90
7461;DHT22;6757;52.258;12.840;2024-02-15T02:29:05;9.10;99.90
7461;DHT22;6757;52.258;12.840;2024-02-15T02:31:34;9.00;99.90
7461;DHT22;6757;52.258;12.840;2024-02-15T02:34:01;9.10;99.90
7461;DHT22;6757;52.258;12.840;2024-02-15T02:36:28;9.10;99.90
7461;DHT22;6757;52.258;12.840;2024-02-15T02:38:56;9.10;99.90
7461;DHT22;6757;52.258;12.840;2024-02-15T02:41:26;9.10;99.90
7461;DHT22;6757;52.258;12.840;2024-02-15T02:43:57;9.10;99.90
7461;DHT22;6757;52.258;12.840;2024-02-15T02:46:24;8.90;99.90
7461;DHT22;6757;52.258;12.840;2024-02-15T02:48:51;9.10;99.90
7461;DHT22;6757;52.258;12.840;2024-02-15T02:51:20;9.10;99.90
7461;DHT22;6757;52.258;12.840;2024-02-15T02:53:48;9.10;99.90
7461;DHT22;6757;52.258;12.840;2024-02-15T02:56:15;9.10;99.90
7461;DHT22;6757;52.258;12.840;2024-02-15T02:58:43;9.00;99.90
7461;DHT22;6757;52.258;12.840;2024-02-15T03:01:13;9.20;99.90
7461;DHT22;6757;52.258;12.840;2024-02-15T03:03:40;9.10;99.90
7461;DHT22;6757;52.258;12.840;2024-02-15T03:06:08;9.20;99.90
7461;DHT22;6757;52.258;12.840;2024-02-15T03:08:35;9.20;99.90
7461;DHT22;6757;52.258;12.840;2024-02-15T03:11:03;9.10;99.90
7461;DHT22;6757;52.258;12.840;2024-02-15T03:13:29;9.20;99.90
7461;DHT22;6757;52.258;12.840;2024-02-15T03:15:57;9.20;99.90
7461;DHT22;6757;52.258;12.840;2024-02-15T03:18:26;9.20;99.90
7461;DHT22;6757;52.258;12.840;2024-02-15T03:20:54;9.30;99.90
7461;DHT22;6757;52.258;12.840;2024-02-15T03:23:23;9.20;99.90
7461;DHT22;6757;52.258;12.840;2024-02-15T03:25:50;9.20;99.90
7461;DHT22;6757;52.258;12.840;2024-02-15T03:28:20;9.10;99.90
7461;DHT22;6757;52.258;12.840;2024-02-15T03:30:48;9.20;99.90
7461;DHT22;6757;52.258;12.840;2024-02-15T03:33:16;9.20;99.90
7461;DHT22;6757;52.258;12.840;2024-02-15T03:35:44;9.20;99.90
7461;DHT22;6757;52.258;12.840;2024-02-15T03:38:11;9.50;99.90
7461;DHT22;6757;52.258;12.840;2024-02-15T03:40:38;9.40;99.90
7461;DHT22;6757;52.258;12.840;2024-02-15T03:43:08;9.30;99.90
7461;DHT22;6757;52.258;12.840;2024-02-15T03:45:35;9.00;99.90
7461;DHT22;6757;52.258;12.840;2024-02-15T03:48:02;9.30;99.90
7461;DHT22;6757;52.258;12.840;2024-02-15T03:50:30;9.30;99.90
7461;DHT22;6757;52.258;12.840;2024-02-15T03:53:00;9.30;99.90
7461;DHT22;6757;52.258;12.840;2024-02-15T03:55:27;9.30;99.90
7461;DHT22;6757;52.258;12.840;2024-02-15T03:57:54;9.30;99.90
7461;DHT22;6757;52.258;12.840;2024-02-15T04:00:23;9.40;99.90
7461;DHT22;6757;52.258;12.840;2024-02-15T04:02:52;9.20;99.90
7461;DHT22;6757;52.258;12.840;2024-02-15T04:05:20;9.30;99.90
7461;DHT22;6757;52.258;12.840;2024-02-15T04:07:48;9.10;99.90
7461;DHT22;6757;52.258;12.840;2024-02-15T04:10:16;9.30;99.90
7461;DHT22;6757;52.258;12.840;2024-02-15T04:12:44;9.30;99.90
7461;DHT22;6757;52.258;12.840;2024-02-15T04:15:13;9.30;99.90
7461;DHT22;6757;52.258;12.840;2024-02-15T04:17:42;9.20;99.90
7461;DHT22;6757;52.258;12.840;2024-02-15T04:20:10;9.30;99.90
7461;DHT22;6757;52.258;12.840;2024-02-15T04:22:40;9.30;99.90
7461;DHT22;6757;52.258;12.840;2024-02-15T04:25:09;9.30;99.90
7461;DHT22;6757;52.258;12.840;2024-02-15T04:27:43;9.50;99.90
7461;DHT22;6757;52.258;12.840;2024-02-15T04:30:11;9.30;99.90
7461;DHT22;6757;52.258;12.840;2024-02-15T04:32:40;9.30;99.90
7461;DHT22;6757;52.258;12.840;2024-02-15T04:35:08;9.30;99.90
7461;DHT22;6757;52.258;12.840;2024-02-15T04:37:35;9.30;99.90
7461;DHT22;6757;52.258;12.840;2024-02-15T04:40:03;9.30;99.90
7461;DHT22;6757;52.258;12.840;2024-02-15T04:42:35;9.30;99.90
7461;DHT22;6757;52.258;12.840;2024-02-15T04:45:06;9.40;99.90
7461;DHT22;6757;52.258;12.840;2024-02-15T04:47:34;9.40;99.90
7461;DHT22;6757;52.258;12.840;2024-02-15T04:50:01;9.30;99.90
7461;DHT22;6757;52.258;12.840;2024-02-15T04:52:31;9.40;99.90
7461;DHT22;6757;52.258;12.840;2024-02-15T04:54:57;9.40;99.90
7461;DHT22;6757;52.258;12.840;2024-02-15T04:57:24;9.40;99.90
7461;DHT22;6757;52.258;12.840;2024-02-15T04:59:53;9.40;99.90
7461;DHT22;6757;52.258;12.840;2024-02-15T05:02:27;9.40;99.90
7461;DHT22;6757;52.258;12.840;2024-02-15T05:04:55;9.30;99.90
7461;DHT22;6757;52.258;12.840;2024-02-15T05:07:22;9.40;99.90
7461;DHT22;6757;52.258;12.840;2024-02-15T05:09:49;9.40;99.90
7461;DHT22;6757;52.258;12.840;2024-02-15T05:12:22;9.40;99.90
7461;DHT22;6757;52.258;12.840;2024-02-15T05:14:50;9.40;99.90
7461;DHT22;6757;52.258;12.840;2024-02-15T05:17:18;9.40;99.90
7461;DHT22;6757;52.258;12.840;2024-02-15T05:19:46;9.40;99.90
7461;DHT22;6757;52.258;12.840;2024-02-15T05:22:14;9.40;99.90
7461;DHT22;6757;52.258;12.840;2024-02-15T05:24:41;9.30;99.90
7461;DHT22;6757;52.258;12.840;2024-02-15T05:27:09;9.40;99.90
7461;DHT22;6757;52.258;12.840;2024-02-15T05:29:35;9.40;99.90
7461;DHT22;6757;52.258;12.840;2024-02-15T05:32:05;9.50;99.90
7461;DHT22;6757;52.258;12.840;2024-02-15T05:34:32;9.40;99.90
7461;DHT22;6757;52.258;12.840;2024-02-15T05:37:06;9.40;99.90
7461;DHT22;6757;52.258;12.840;2024-02-15T05:39:33;9.40;99.90
7461;DHT22;6757;52.258;12.840;2024-02-15T05:42:00;9.30;99.90
7461;DHT22;6757;52.258;12.840;2024-02-15T05:44:27;9.30;99.90
7461;DHT22;6757;52.258;12.840;2024-02-15T05:46:55;9.40;99.90
7461;DHT22;6757;52.258;12.840;2024-02-15T05:49:23;9.40;99.90
7461;DHT22;6757;52.258;12.840;2024-02-15T05:51:50;9.40;99.90
7461;DHT22;6757;52.258;12.840;2024-02-15T05:54:21;9.30;99.90
7461;DHT22;6757;52.258;12.840;2024-02-15T05:56:49;9.30;99.90
7461;DHT22;6757;52.258;12.840;2024-02-15T05:59:17;9.30;99.90
7461;DHT22;6757;52.258;12.840;2024-02-15T06:01:45;9.40;99.90
7461;DHT22;6757;52.258;12.840;2024-02-15T06:04:14;9.40;99.90
7461;DHT22;6757;52.258;12.840;2024-02-15T06:06:40;9.40;99.90
7461;DHT22;6757;52.258;12.840;2024-02-15T06:09:08;9.40;99.90
7461;DHT22;6757;52.258;12.840;2024-02-15T06:11:36;9.50;99.90
7461;DHT22;6757;52.258;12.840;2024-02-15T06:14:03;9.50;99.90
7461;DHT22;6757;52.258;12.840;2024-02-15T06:16:32;9.50;99.90
7461;DHT22;6757;52.258;12.840;2024-02-15T06:18:59;9.50;99.90
7461;DHT22;6757;52.258;12.840;2024-02-15T06:21:27;9.50;99.90
7461;DHT22;6757;52.258;12.840;2024-02-15T06:23:55;9.60;99.90
7461;DHT22;6757;52.258;12.840;2024-02-15T06:26:21;9.60;99.90
7461;DHT22;6757;52.258;12.840;2024-02-15T06:28:51;9.60;99.90
7461;DHT22;6757;52.258;12.840;2024-02-15T06:31:35;9.60;99.90
7461;DHT22;6757;52.258;12.840;2024-02-15T06:34:21;9.60;99.90
7461;DHT22;6757;52.258;12.840;2024-02-15T06:37:05;9.60;99.90
7461;DHT22;6757;52.258;12.840;2024-02-15T06:39:49;9.60;99.90
7461;DHT22;6757;52.258;12.840;2024-02-15T06:42:17;9.60;99.90
7461;DHT22;6757;52.258;12.840;2024-02-15T06:44:48;9.60;99.90
7461;DHT22;6757;52.258;12.840;2024-02-15T06:47:16;9.60;99.90
7461;DHT22;6757;52.258;12.840;2024-02-15T06:49:46;9.60;99.90
7461;DHT22;6757;52.258;12.840;2024-02-15T06:52:15;9.60;99.90
7461;DHT22;6757;52.258;12.840;2024-02-15T06:54:44;9.70;99.90
7461;DHT22;6757;52.258;12.840;2024-02-15T06:57:13;9.70;99.90
7461;DHT22;6757;52.258;12.840;2024-02-15T06:59:41;9.70;99.90
7461;DHT22;6757;52.258;12.840;2024-02-15T07:02:09;9.70;99.90
7461;DHT22;6757;52.258;12.840;2024-02-15T07:04:37;9.70;99.90
7461;DHT22;6757;52.258;12.840;2024-02-15T07:07:07;9.70;99.90
7461;DHT22;6757;52.258;12.840;2024-02-15T07:09:34;9.70;99.90
7461;DHT22;6757;52.258;12.840;2024-02-15T07:12:01;9.70;99.90
7461;DHT22;6757;52.258;12.840;2024-02-15T07:14:28;9.70;99.90
7461;DHT22;6757;52.258;12.840;2024-02-15T07:16:57;9.70;99.90
7461;DHT22;6757;52.258;12.840;2024-02-15T07:19:26;9.70;99.90
7461;DHT22;6757;52.258;12.840;2024-02-15T07:21:54;9.90;99.90
7461;DHT22;6757;52.258;12.840;2024-02-15T07:24:23;9.80;99.90
7461;DHT22;6757;52.258;12.840;2024-02-15T07:26:52;9.70;99.90
7461;DHT22;6757;52.258;12.840;2024-02-15T07:29:20;9.80;99.90
7461;DHT22;6757;52.258;12.840;2024-02-15T07:31:48;9.80;99.90
7461;DHT22;6757;52.258;12.840;2024-02-15T07:34:16;9.80;99.90
7461;DHT22;6757;52.258;12.840;2024-02-15T07:36:46;9.80;99.90
7461;DHT22;6757;52.258;12.840;2024-02-15T07:39:14;9.80;99.90
7461;DHT22;6757;52.258;12.840;2024-02-15T07:41:48;9.80;99.90
7461;DHT22;6757;52.258;12.840;2024-02-15T07:44:16;9.90;99.90
7461;DHT22;6757;52.258;12.840;2024-02-15T07:46:45;9.90;99.90
7461;DHT22;6757;52.258;12.840;2024-02-15T07:49:14;9.90;99.90
7461;DHT22;6757;52.258;12.840;2024-02-15T07:51:41;10.00;99.90
7461;DHT22;6757;52.258;12.840;2024-02-15T07:54:10;10.00;99.90
7461;DHT22;6757;52.258;12.840;2024-02-15T07:56:41;10.00;99.90
7461;DHT22;6757;52.258;12.840;2024-02-15T07:59:08;10.10;99.90
7461;DHT22;6757;52.258;12.840;2024-02-15T08:01:39;10.10;99.90
7461;DHT22;6757;52.258;12.840;2024-02-15T08:04:06;10.10;99.90
7461;DHT22;6757;52.258;12.840;2024-02-15T08:06:34;10.20;99.90
7461;DHT22;6757;52.258;12.840;2024-02-15T08:09:03;10.20;99.90
7461;DHT22;6757;52.258;12.840;2024-02-15T08:11:33;10.20;99.90
7461;DHT22;6757;52.258;12.840;2024-02-15T08:14:00;10.30;99.90
7461;DHT22;6757;52.258;12.840;2024-02-15T08:16:27;10.30;99.90
7461;DHT22;6757;52.258;12.840;2024-02-15T08:18:54;10.50;99.90
7461;DHT22;6757;52.258;12.840;2024-02-15T08:21:25;10.20;99.90
7461;DHT22;6757;52.258;12.840;2024-02-15T08:23:54;10.40;99.90
7461;DHT22;6757;52.258;12.840;2024-02-15T08:26:22;10.40;99.90
7461;DHT22;6757;52.258;12.840;2024-02-15T08:28:51;10.40;99.90
7461;DHT22;6757;52.258;12.840;2024-02-15T08:31:18;10.50;99.90
7461;DHT22;6757;52.258;12.840;2024-02-15T08:33:46;10.50;99.90
7461;DHT22;6757;52.258;12.840;2024-02-15T08:36:13;10.60;99.90
7461;DHT22;6757;52.258;12.840;2024-02-15T08:38:40;10.50;99.90
7461;DHT22;6757;52.258;12.840;2024-02-15T08:41:07;10.70;99.90
7461;DHT22;6757;52.258;12.840;2024-02-15T08:43:36;10.70;99.90
7461;DHT22;6757;52.258;12.840;2024-02-15T08:46:09;10.80;99.90
7461;DHT22;6757;52.258;12.840;2024-02-15T08:48:36;10.80;99.90
7461;DHT22;6757;52.258;12.840;2024-02-15T08:51:04;10.90;99.90
7461;DHT22;6757;52.258;12.840;2024-02-15T08:53:34;10.90;99.90
7461;DHT22;6757;52.258;12.840;2024-02-15T08:56:02;11.10;99.90
7461;DHT22;6757;52.258;12.840;2024-02-15T08:58:31;10.90;99.90
7461;DHT22;6757;52.258;12.840;2024-02-15T09:00:58;11.00;99.90
7461;DHT22;6757;52.258;12.840;2024-02-15T09:03:27;11.00;99.90
7461;DHT22;6757;52.258;12.840;2024-02-15T09:05:54;11.00;99.90
7461;DHT22;6757;52.258;12.840;2024-02-15T09:08:25;11.00;99.90
7461;DHT22;6757;52.258;12.840;2024-02-15T09:10:55;11.10;99.90
7461;DHT22;6757;52.258;12.840;2024-02-15T09:13:24;11.30;99.90
7461;DHT22;6757;52.258;12.840;2024-02-15T09:15:51;11.10;99.90
7461;DHT22;6757;52.258;12.840;2024-02-15T09:18:18;11.20;99.90
7461;DHT22;6757;52.258;12.840;2024-02-15T09:20:49;11.20;99.90
7461;DHT22;6757;52.258;12.840;2024-02-15T09:23:20;11.30;99.90
7461;DHT22;6757;52.258;12.840;2024-02-15T09:25:50;11.30;99.90
7461;DHT22;6757;52.258;12.840;2024-02-15T09:28:18;11.50;99.90
7461;DHT22;6757;52.258;12.840;2024-02-15T09:30:48;11.40;99.90
7461;DHT22;6757;52.258;12.840;2024-02-15T09:33:17;11.30;99.90
7461;DHT22;6757;52.258;12.840;2024-02-15T09:35:46;11.50;99.90
7461;DHT22;6757;52.258;12.840;2024-02-15T09:38:18;11.50;99.90
7461;DHT22;6757;52.258;12.840;2024-02-15T09:40:48;11.50;99.90
7461;DHT22;6757;52.258;12.840;2024-02-15T09:43:16;11.50;99.90
7461;DHT22;6757;52.258;12.840;2024-02-15T09:45:43;11.50;99.90
7461;DHT22;6757;52.258;12.840;2024-02-15T09:48:11;11.50;99.90
7461;DHT22;6757;52.258;12.840;2024-02-15T09:50:40;11.50;99.90
7461;DHT22;6757;52.258;12.840;2024-02-15T09:53:09;11.50;99.90
7461;DHT22;6757;52.258;12.840;2024-02-15T09:55:39;11.50;99.90
7461;DHT22;6757;52.258;12.840;2024-02-15T09:58:08;11.50;99.90
7461;DHT22;6757;52.258;12.840;2024-02-15T10:00:39;11.50;99.90
7461;DHT22;6757;52.258;12.840;2024-02-15T10:03:08;11.60;99.90
7461;DHT22;6757;52.258;12.840;2024-02-15T10:05:37;11.60;99.90
7461;DHT22;6757;52.258;12.840;2024-02-15T10:08:07;11.60;99.90
7461;DHT22;6757;52.258;12.840;2024-02-15T10:10:40;11.60;99.90
7461;DHT22;6757;52.258;12.840;2024-02-15T10:13:13;11.60;99.90
7461;DHT22;6757;52.258;12.840;2024-02-15T10:15:40;11.60;99.90
7461;DHT22;6757;52.258;12.840;2024-02-15T10:18:09;11.70;99.90
7461;DHT22;6757;52.258;12.840;2024-02-15T10:20:38;11.70;99.90
7461;DHT22;6757;52.258;12.840;2024-02-15T10:23:11;11.70;99.90
7461;DHT22;6757;52.258;12.840;2024-02-15T10:25:41;11.80;99.90
7461;DHT22;6757;52.258;12.840;2024-02-15T10:28:09;11.70;99.90
7461;DHT22;6757;52.258;12.840;2024-02-15T10:30:38;11.80;99.90
7461;DHT22;6757;52.258;12.840;2024-02-15T10:33:09;11.60;99.90
7461;DHT22;6757;52.258;12.840;2024-02-15T10:35:36;12.00;99.90
7461;DHT22;6757;52.258;12.840;2024-02-15T10:38:07;11.90;99.90
7461;DHT22;6757;52.258;12.840;2024-02-15T10:40:36;12.00;99.90
7461;DHT22;6757;52.258;12.840;2024-02-15T10:43:05;11.90;99.90
7461;DHT22;6757;52.258;12.840;2024-02-15T10:45:35;12.00;99.90
7461;DHT22;6757;52.258;12.840;2024-02-15T10:48:07;12.00;99.90
7461;DHT22;6757;52.258;12.840;2024-02-15T10:50:35;12.00;99.90
7461;DHT22;6757;52.258;12.840;2024-02-15T10:53:10;12.10;99.90
7461;DHT22;6757;52.258;12.840;2024-02-15T10:55:48;12.10;99.90
7461;DHT22;6757;52.258;12.840;2024-02-15T10:58:25;12.20;99.90
7461;DHT22;6757;52.258;12.840;2024-02-15T11:00:53;12.10;99.90
7461;DHT22;6757;52.258;12.840;2024-02-15T11:03:25;12.20;99.90
7461;DHT22;6757;52.258;12.840;2024-02-15T11:05:58;12.20;99.90
7461;DHT22;6757;52.258;12.840;2024-02-15T11:08:27;12.20;99.90
7461;DHT22;6757;52.258;12.840;2024-02-15T11:10:56;12.20;99.90
7461;DHT22;6757;52.258;12.840;2024-02-15T11:13:25;12.20;99.90
7461;DHT22;6757;52.258;12.840;2024-02-15T11:15:55;12.20;99.90
7461;DHT22;6757;52.258;12.840;2024-02-15T11:18:42;12.30;99.90
7461;DHT22;6757;52.258;12.840;2024-02-15T11:21:12;12.30;99.90
7461;DHT22;6757;52.258;12.840;2024-02-15T11:23:42;12.30;99.90
7461;DHT22;6757;52.258;12.840;2024-02-15T11:26:13;12.30;99.90
7461;DHT22;6757;52.258;12.840;2024-02-15T11:29:49;12.30;99.90
7461;DHT22;6757;52.258;12.840;2024-02-15T11:32:36;12.30;99.90
7461;DHT22;6757;52.258;12.840;2024-02-15T11:35:05;12.40;99.90
7461;DHT22;6757;52.258;12.840;2024-02-15T11:37:55;12.40;99.90
7461;DHT22;6757;52.258;12.840;2024-02-15T11:40:24;12.50;99.90
7461;DHT22;6757;52.258;12.840;2024-02-15T11:42:56;12.50;99.90
7461;DHT22;6757;52.258;12.840;2024-02-15T11:45:24;12.50;99.90
7461;DHT22;6757;52.258;12.840;2024-02-15T11:47:58;12.60;99.90
7461;DHT22;6757;52.258;12.840;2024-02-15T11:50:27;12.60;99.90
7461;DHT22;6757;52.258;12.840;2024-02-15T11:53:02;12.70;99.90
7461;DHT22;6757;52.258;12.840;2024-02-15T11:55:35;12.80;99.90
7461;DHT22;6757;52.258;12.840;2024-02-15T11:58:05;12.80;99.90
7461;DHT22;6757;52.258;12.840;2024-02-15T12:00:44;12.90;99.90
7461;DHT22;6757;52.258;12.840;2024-02-15T12:03:28;13.00;99.90
7461;DHT22;6757;52.258;12.840;2024-02-15T12:06:18;13.10;99.90
7461;DHT22;6757;52.258;12.840;2024-02-15T12:09:02;13.10;99.90
7461;DHT22;6757;52.258;12.840;2024-02-15T12:11:46;13.20;99.90
7461;DHT22;6757;52.258;12.840;2024-02-15T12:14:32;13.20;99.90
7461;DHT22;6757;52.258;12.840;2024-02-15T12:17:16;13.20;99.90
7461;DHT22;6757;52.258;12.840;2024-02-15T12:20:01;13.20;99.90
7461;DHT22;6757;52.258;12.840;2024-02-15T12:22:33;13.20;99.90
7461;DHT22;6757;52.258;12.840;2024-02-15T12:25:04;13.30;99.90
7461;DHT22;6757;52.258;12.840;2024-02-15T12:27:37;13.30;99.90
7461;DHT22;6757;52.258;12.840;2024-02-15T12:30:08;13.40;99.90
7461;DHT22;6757;52.258;12.840;2024-02-15T12:32:39;13.40;99.90
7461;DHT22;6757;52.258;12.840;2024-02-15T12:35:10;13.40;99.90
7461;DHT22;6757;52.258;12.840;2024-02-15T12:37:42;13.50;99.90
7461;DHT22;6757;52.258;12.840;2024-02-15T12:40:12;13.50;99.90
7461;DHT22;6757;52.258;12.840;2024-02-15T12:42:44;13.60;99.90
7461;DHT22;6757;52.258;12.840;2024-02-15T12:45:17;13.60;99.90
7461;DHT22;6757;52.258;12.840;2024-02-15T12:47:47;13.70;99.90
7461;DHT22;6757;52.258;12.840;2024-02-15T12:50:15;13.70;99.90
7461;DHT22;6757;52.258;12.840;2024-02-15T12:52:45;13.80;99.90
7461;DHT22;6757;52.258;12.840;2024-02-15T12:55:15;13.80;99.90
7461;DHT22;6757;52.258;12.840;2024-02-15T12:57:46;13.90;99.90
7461;DHT22;6757;52.258;12.840;2024-02-15T13:00:19;14.00;99.90
7461;DHT22;6757;52.258;12.840;2024-02-15T13:02:47;14.10;99.90
7461;DHT22;6757;52.258;12.840;2024-02-15T13:05:16;14.20;99.90
7461;DHT22;6757;52.258;12.840;2024-02-15T13:07:46;14.30;99.90
7461;DHT22;6757;52.258;12.840;2024-02-15T13:10:14;14.40;99.90
7461;DHT22;6757;52.258;12.840;2024-02-15T13:12:42;14.40;99.90
7461;DHT22;6757;52.258;12.840;2024-02-15T13:15:12;14.50;99.90
7461;DHT22;6757;52.258;12.840;2024-02-15T13:17:43;14.40;99.90
7461;DHT22;6757;52.258;12.840;2024-02-15T13:20:11;14.50;99.90
7461;DHT22;6757;52.258;12.840;2024-02-15T13:22:41;14.40;99.90
7461;DHT22;6757;52.258;12.840;2024-02-15T13:25:10;14.40;99.90
7461;DHT22;6757;52.258;12.840;2024-02-15T13:27:37;14.30;99.90
7461;DHT22;6757;52.258;12.840;2024-02-15T13:30:07;14.20;99.90
7461;DHT22;6757;52.258;12.840;2024-02-15T13:32:36;14.20;99.90
7461;DHT22;6757;52.258;12.840;2024-02-15T13:35:09;14.10;99.90
7461;DHT22;6757;52.258;12.840;2024-02-15T13:37:41;14.10;99.90
7461;DHT22;6757;52.258;12.840;2024-02-15T13:40:09;14.10;99.90
7461;DHT22;6757;52.258;12.840;2024-02-15T13:42:41;14.00;99.90
7461;DHT22;6757;52.258;12.840;2024-02-15T13:45:14;14.10;99.90
7461;DHT22;6757;52.258;12.840;2024-02-15T13:47:44;14.00;99.90
7461;DHT22;6757;52.258;12.840;2024-02-15T13:50:14;14.00;99.90
7461;DHT22;6757;52.258;12.840;2024-02-15T13:52:43;14.10;99.90
7461;DHT22;6757;52.258;12.840;2024-02-15T13:55:12;14.10;99.90
7461;DHT22;6757;52.258;12.840;2024-02-15T13:57:40;14.20;99.90
7461;DHT22;6757;52.258;12.840;2024-02-15T14:00:09;14.10;99.90
7461;DHT22;6757;52.258;12.840;2024-02-15T14:02:41;14.20;99.90
7461;DHT22;6757;52.258;12.840;2024-02-15T14:05:10;14.30;99.90
7461;DHT22;6757;52.258;12.840;2024-02-15T14:07:39;14.30;99.90
7461;DHT22;6757;52.258;12.840;2024-02-15T14:10:09;14.40;99.90
7461;DHT22;6757;52.258;12.840;2024-02-15T14:12:38;14.50;99.90
7461;DHT22;6757;52.258;12.840;2024-02-15T14:15:09;14.60;99.90
7461;DHT22;6757;52.258;12.840;2024-02-15T14:17:37;14.60;99.90
7461;DHT22;6757;52.258;12.840;2024-02-15T14:20:05;14.60;99.90
7461;DHT22;6757;52.258;12.840;2024-02-15T14:22:36;14.60;99.90
7461;DHT22;6757;52.258;12.840;2024-02-15T14:25:06;14.60;99.90
7461;DHT22;6757;52.258;12.840;2024-02-15T14:27:34;14.50;99.90
7461;DHT22;6757;52.258;12.840;2024-02-15T14:30:02;14.50;99.90
7461;DHT22;6757;52.258;12.840;2024-02-15T14:32:48;14.40;99.90
7461;DHT22;6757;52.258;12.840;2024-02-15T14:35:31;14.30;99.90
7461;DHT22;6757;52.258;12.840;2024-02-15T14:38:01;14.30;99.90
7461;DHT22;6757;52.258;12.840;2024-02-15T14:40:33;14.20;99.90
7461;DHT22;6757;52.258;12.840;2024-02-15T14:43:01;14.40;99.90
7461;DHT22;6757;52.258;12.840;2024-02-15T14:45:29;14.20;99.90
7461;DHT22;6757;52.258;12.840;2024-02-15T14:47:58;14.20;99.90
7461;DHT22;6757;52.258;12.840;2024-02-15T14:50:27;14.20;99.90
7461;DHT22;6757;52.258;12.840;2024-02-15T14:52:54;14.20;99.90
7461;DHT22;6757;52.258;12.840;2024-02-15T14:55:21;14.20;99.90
7461;DHT22;6757;52.258;12.840;2024-02-15T14:57:50;14.20;99.90
7461;DHT22;6757;52.258;12.840;2024-02-15T15:00:17;14.20;99.90
7461;DHT22;6757;52.258;12.840;2024-02-15T15:02:47;14.10;99.90
7461;DHT22;6757;52.258;12.840;2024-02-15T15:05:16;14.10;99.90
7461;DHT22;6757;52.258;12.840;2024-02-15T15:08:01;14.10;99.90
7461;DHT22;6757;52.258;12.840;2024-02-15T15:10:46;14.10;99.90
7461;DHT22;6757;52.258;12.840;2024-02-15T15:13:33;14.10;99.90
7461;DHT22;6757;52.258;12.840;2024-02-15T15:16:00;14.00;99.90
7461;DHT22;6757;52.258;12.840;2024-02-15T15:18:28;14.00;99.90
7461;DHT22;6757;52.258;12.840;2024-02-15T15:20:56;14.00;99.90
7461;DHT22;6757;52.258;12.840;2024-02-15T15:23:23;14.00;99.90
7461;DHT22;6757;52.258;12.840;2024-02-15T15:25:52;13.90;99.90
7461;DHT22;6757;52.258;12.840;2024-02-15T15:28:18;13.90;99.90
7461;DHT22;6757;52.258;12.840;2024-02-15T15:30:48;13.90;99.90
7461;DHT22;6757;52.258;12.840;2024-02-15T15:33:17;13.90;99.90
7461;DHT22;6757;52.258;12.840;2024-02-15T15:35:45;13.80;99.90
7461;DHT22;6757;52.258;12.840;2024-02-15T15:38:14;13.80;99.90
7461;DHT22;6757;52.258;12.840;2024-02-15T15:40:42;13.80;99.90
7461;DHT22;6757;52.258;12.840;2024-02-15T15:43:11;13.80;99.90
7461;DHT22;6757;52.258;12.840;2024-02-15T15:45:39;13.70;99.90
7461;DHT22;6757;52.258;12.840;2024-02-15T15:48:07;13.70;99.90
7461;DHT22;6757;52.258;12.840;2024-02-15T15:50:35;13.70;99.90
7461;DHT22;6757;52.258;12.840;2024-02-15T15:53:02;13.60;99.90
7461;DHT22;6757;52.258;12.840;2024-02-15T15:55:30;13.60;99.90
7461;DHT22;6757;52.258;12.840;2024-02-15T15:57:57;13.60;99.90
7461;DHT22;6757;52.258;12.840;2024-02-15T16:00:24;13.50;99.90
7461;DHT22;6757;52.258;12.840;2024-02-15T16:02:51;13.50;99.90
7461;DHT22;6757;52.258;12.840;2024-02-15T16:05:23;13.50;99.90
7461;DHT22;6757;52.258;12.840;2024-02-15T16:07:50;13.40;99.90
7461;DHT22;6757;52.258;12.840;2024-02-15T16:10:17;13.40;99.90